Time;durP1;ratioP1;P1;durP2;ratioP2;P2;SDS_P1;SDS_P2;PMS_P1;PMS_P2;Temp;Humidity;BMP_temperature;BMP_pressure;BME280_temperature;BME280_humidity;BME280_pressure;Samples;Min_cycle;Max_cycle;Signal;HPM_P1;HPM_P2
2021/07/05 00:00:12;;;;;;;19.35;14.50;;;;;;;14.94;100.00;100440.75;4947162;28;20086;-78
2021/07/05 00:02:38;;;;;;;19.50;14.13;;;;;;;14.93;100.00;100449.88;4961199;28;20129;-79
2021/07/05 00:05:06;;;;;;;20.92;14.70;;;;;;;14.89;100.00;100435.94;4963637;28;20142;-79
2021/07/05 00:07:33;;;;;;;17.48;13.43;;;;;;;14.92;100.00;100442.00;4956910;28;20034;-79
2021/07/05 00:09:58;;;;;;;20.10;14.55;;;;;;;14.89;100.00;100440.53;4955914;28;20046;-79
2021/07/05 00:12:24;;;;;;;22.40;14.60;;;;;;;14.89;100.00;100435.94;4962679;28;20054;-79
2021/07/05 00:14:49;;;;;;;22.75;14.65;;;;;;;14.88;100.00;100436.16;4963178;28;20070;-79
2021/07/05 00:17:15;;;;;;;20.92;14.38;;;;;;;14.86;100.00;100430.94;4963110;28;20495;-79
2021/07/05 00:19:40;;;;;;;22.27;15.40;;;;;;;14.85;100.00;100431.16;4962104;28;20046;-79
2021/07/05 00:22:07;;;;;;;18.13;14.35;;;;;;;14.88;100.00;100438.88;4964190;28;20062;-79
2021/07/05 00:24:32;;;;;;;17.85;15.32;;;;;;;14.87;100.00;100437.19;4961322;28;20061;-79
2021/07/05 00:26:57;;;;;;;19.85;14.48;;;;;;;14.84;100.00;100443.00;4962399;28;20209;-79
2021/07/05 00:29:23;;;;;;;22.13;14.32;;;;;;;14.81;100.00;100448.78;4944310;28;20484;-79
2021/07/05 00:31:49;;;;;;;19.00;15.40;;;;;;;14.78;100.00;100449.19;4945329;28;20074;-79
2021/07/05 00:34:14;;;;;;;21.98;14.63;;;;;;;14.77;100.00;100442.13;4940084;28;20074;-79
2021/07/05 00:36:39;;;;;;;17.70;14.57;;;;;;;14.76;100.00;100445.84;4948328;28;20038;-79
2021/07/05 00:39:05;;;;;;;21.20;14.98;;;;;;;14.69;100.00;100448.53;4935231;28;20404;-78
2021/07/05 00:41:30;;;;;;;19.15;14.02;;;;;;;14.69;100.00;100445.00;4940213;28;20130;-78
2021/07/05 00:43:57;;;;;;;21.88;15.75;;;;;;;14.71;100.00;100449.19;4951614;28;20042;-78
2021/07/05 00:46:23;;;;;;;21.55;15.10;;;;;;;14.68;100.00;100435.25;4954231;28;20054;-79
2021/07/05 00:48:49;;;;;;;23.42;15.82;;;;;;;14.63;100.00;100439.34;4946002;28;20078;-79
2021/07/05 00:51:16;;;;;;;22.85;16.90;;;;;;;14.60;100.00;100437.06;4936114;28;20719;-78
2021/07/05 00:53:43;;;;;;;20.65;16.40;;;;;;;14.60;100.00;100433.53;4950769;28;20051;-78
2021/07/05 00:56:08;;;;;;;21.30;16.67;;;;;;;14.57;100.00;100418.56;4963690;28;20050;-79
2021/07/05 00:58:34;;;;;;;23.63;17.30;;;;;;;14.58;100.00;100417.50;4960597;28;20050;-79
2021/07/05 01:01:00;;;;;;;21.67;17.20;;;;;;;14.57;100.00;100418.56;4957762;28;20484;-78
2021/07/05 01:03:25;;;;;;;25.13;17.58;;;;;;;14.55;100.00;100425.19;4961303;28;20038;-78
2021/07/05 01:05:51;;;;;;;21.75;17.63;;;;;;;14.54;100.00;100421.66;4920627;28;20047;-78
2021/07/05 01:08:16;;;;;;;27.65;18.40;;;;;;;14.53;100.00;100417.31;4955057;28;20054;-79
2021/07/05 01:10:41;;;;;;;23.88;19.13;;;;;;;14.54;100.00;100412.72;4944354;28;20403;-79
2021/07/05 01:13:07;;;;;;;27.98;19.65;;;;;;;14.55;100.00;100409.81;4961495;28;20266;-78
2021/07/05 01:15:32;;;;;;;27.98;19.15;;;;;;;14.54;100.00;100408.16;4927174;28;20061;-79
2021/07/05 01:18:01;;;;;;;23.85;18.95;;;;;;;14.54;100.00;100400.06;4962597;28;20054;-79
2021/07/05 01:20:29;;;;;;;26.85;18.55;;;;;;;14.54;100.00;100396.53;4962727;28;20077;-79
2021/07/05 01:22:55;;;;;;;26.67;20.15;;;;;;;14.52;100.00;100393.19;4941420;28;20070;-78
2021/07/05 01:25:23;;;;;;;25.98;19.67;;;;;;;14.47;100.00;100396.44;4960260;28;20097;-78
2021/07/05 01:27:50;;;;;;;26.23;20.40;;;;;;;14.45;100.00;100395.81;4939957;28;20398;-79
2021/07/05 01:30:17;;;;;;;26.05;20.05;;;;;;;14.43;100.00;100389.78;4962472;28;20487;-78
2021/07/05 01:32:45;;;;;;;25.10;19.10;;;;;;;14.39;100.00;100388.53;4962502;28;20145;-78
2021/07/05 01:35:12;;;;;;;25.52;19.30;;;;;;;14.41;100.00;100390.00;4938218;28;20039;-78
2021/07/05 01:37:38;;;;;;;30.55;19.33;;;;;;;14.40;100.00;100385.63;4962930;28;20047;-78
2021/07/05 01:40:06;;;;;;;31.40;21.55;;;;;;;14.41;100.00;100383.75;4961401;28;20047;-79
2021/07/05 01:42:31;;;;;;;28.73;19.20;;;;;;;14.37;100.00;100383.31;4944355;28;20121;-79
2021/07/05 01:44:56;;;;;;;30.73;19.92;;;;;;;14.36;100.00;100376.25;4932962;28;20472;-79
2021/07/05 01:47:22;;;;;;;26.77;20.00;;;;;;;14.37;100.00;100375.22;4943330;28;20039;-78
2021/07/05 01:49:47;;;;;;;29.77;20.27;;;;;;;14.35;100.00;100382.69;4958083;28;20514;-78
2021/07/05 01:52:14;;;;;;;27.83;19.77;;;;;;;14.36;100.00;100375.44;4934124;28;20106;-79
2021/07/05 01:54:40;;;;;;;32.65;21.08;;;;;;;14.35;100.00;100373.75;4965366;28;20047;-79
2021/07/05 01:57:06;;;;;;;32.90;20.85;;;;;;;14.35;100.00;100368.34;4967088;28;20045;-79
2021/07/05 01:59:32;;;;;;;32.65;20.40;;;;;;;14.32;100.00;100371.44;4947245;28;20038;-79
2021/07/05 02:01:58;;;;;;;33.70;22.27;;;;;;;14.31;100.00;100376.03;4964929;28;20097;-78
2021/07/05 02:04:27;;;;;;;30.45;21.10;;;;;;;14.30;100.00;100368.97;4965992;28;20047;-78
2021/07/05 02:06:53;;;;;;;30.90;21.20;;;;;;;14.29;100.00;100369.16;4949743;28;20179;-79
2021/07/05 02:09:19;;;;;;;35.72;23.35;;;;;;;14.27;100.00;100360.41;4945882;28;20053;-79
2021/07/05 02:11:44;;;;;;;28.75;21.23;;;;;;;14.27;100.00;100352.31;4966207;28;20122;-78
2021/07/05 02:14:10;;;;;;;31.85;22.48;;;;;;;14.24;100.00;100353.53;4965674;28;20047;-79
2021/07/05 02:16:35;;;;;;;36.88;22.63;;;;;;;14.22;100.00;100345.66;4946954;28;20970;-79
2021/07/05 02:19:03;;;;;;;40.13;23.60;;;;;;;14.15;100.00;100352.88;4959266;28;20042;-79
2021/07/05 02:21:29;;;;;;;40.33;25.33;;;;;;;14.17;100.00;100352.69;4962522;28;20139;-78
2021/07/05 02:23:55;;;;;;;39.78;25.95;;;;;;;14.16;100.00;100348.31;4964217;28;20165;-79
2021/07/05 02:26:20;;;;;;;37.42;26.10;;;;;;;14.10;100.00;100341.84;4962376;28;20149;-79
2021/07/05 02:28:46;;;;;;;40.40;24.80;;;;;;;14.08;100.00;100341.22;4962962;28;20074;-79
2021/07/05 02:31:11;;;;;;;41.50;26.60;;;;;;;14.05;100.00;100344.31;4943720;28;20043;-79
2021/07/05 02:33:37;;;;;;;38.33;26.25;;;;;;;14.02;100.00;100339.31;4961258;28;20066;-79
2021/07/05 02:36:08;;;;;;;41.63;25.95;;;;;;;14.03;100.00;100330.19;4943959;28;20354;-79
2021/07/05 02:38:34;;;;;;;42.83;27.42;;;;;;;14.00;100.00;100336.81;4948309;28;20125;-79
2021/07/05 02:41:01;;;;;;;40.78;26.00;;;;;;;13.97;100.00;100337.19;4965293;28;20049;-79
2021/07/05 02:43:27;;;;;;;43.80;27.00;;;;;;;13.96;100.00;100329.31;4967315;28;20034;-79
2021/07/05 02:45:55;;;;;;;45.67;28.33;;;;;;;13.94;100.00;100337.59;4961962;28;20519;-79
2021/07/05 02:48:23;;;;;;;42.05;27.20;;;;;;;13.93;100.00;100335.09;4956290;28;20046;-79
2021/07/05 02:50:52;;;;;;;45.13;28.85;;;;;;;13.92;100.00;100336.94;4961802;28;20043;-78
2021/07/05 02:53:17;;;;;;;45.80;27.60;;;;;;;13.89;100.00;100340.03;4957618;28;20058;-79
2021/07/05 02:55:44;;;;;;;41.40;26.67;;;;;;;13.85;100.00;100337.94;4957514;28;20035;-79
2021/07/05 02:58:09;;;;;;;40.78;27.70;;;;;;;13.82;100.00;100333.78;4959658;28;20220;-79
2021/07/05 03:00:38;;;;;;;45.88;27.65;;;;;;;13.80;100.00;100341.22;4964549;28;20042;-79
2021/07/05 03:03:04;;;;;;;48.23;29.43;;;;;;;13.81;100.00;100342.06;4964993;28;20389;-79
2021/07/05 03:05:31;;;;;;;46.45;28.30;;;;;;;13.82;100.00;100343.75;4963106;28;20306;-79
2021/07/05 03:07:57;;;;;;;41.00;26.45;;;;;;;13.83;100.00;100340.00;4963035;28;20110;-79
2021/07/05 03:10:26;;;;;;;40.92;26.67;;;;;;;13.82;100.00;100349.13;4964763;28;20242;-79
2021/07/05 03:12:54;;;;;;;38.70;27.95;;;;;;;13.88;100.00;100342.94;4965463;28;20050;-79
2021/07/05 03:15:20;;;;;;;45.47;29.73;;;;;;;13.89;100.00;100339.22;4960065;28;20950;-79
2021/07/05 03:17:46;;;;;;;40.92;28.67;;;;;;;13.90;100.00;100336.34;4945826;28;20046;-79
2021/07/05 03:20:19;;;;;;;41.78;28.02;;;;;;;13.92;100.00;100336.94;4965313;28;20278;-79
2021/07/05 03:22:46;;;;;;;41.13;27.58;;;;;;;13.94;100.00;100342.16;4947237;28;20147;-79
2021/07/05 03:25:13;;;;;;;44.72;29.60;;;;;;;13.95;100.00;100344.66;4963374;28;20050;-79
2021/07/05 03:27:39;;;;;;;44.67;28.48;;;;;;;13.94;100.00;100345.69;4956741;28;20155;-79
2021/07/05 03:30:07;;;;;;;40.22;28.30;;;;;;;13.95;100.00;100338.41;4963900;28;20486;-79
2021/07/05 03:32:33;;;;;;;44.35;29.15;;;;;;;13.96;100.00;100346.31;4945924;28;20553;-79
2021/07/05 03:34:58;;;;;;;42.92;28.65;;;;;;;13.97;100.00;100353.38;4963339;28;20051;-79
2021/07/05 03:37:24;;;;;;;40.55;26.58;;;;;;;14.00;100.00;100355.69;4964003;28;20042;-79
2021/07/05 03:39:50;;;;;;;38.97;28.35;;;;;;;13.99;100.00;100347.81;4961407;28;20043;-79
2021/07/05 03:42:15;;;;;;;38.65;26.13;;;;;;;14.02;100.00;100343.88;4957631;28;20055;-79
2021/07/05 03:44:41;;;;;;;35.17;26.35;;;;;;;14.04;100.00;100345.34;4949270;28;20045;-79
2021/07/05 03:47:06;;;;;;;41.47;27.27;;;;;;;14.04;100.00;100353.44;4963853;28;20436;-79
2021/07/05 03:49:32;;;;;;;36.20;26.25;;;;;;;14.08;100.00;100354.69;4935261;28;20050;-79
2021/07/05 03:51:57;;;;;;;36.15;24.52;;;;;;;14.12;100.00;100336.25;4949691;28;20464;-79
2021/07/05 03:54:23;;;;;;;33.47;24.17;;;;;;;14.12;100.00;100347.88;4933560;28;20046;-79
2021/07/05 03:56:49;;;;;;;35.53;24.80;;;;;;;14.14;100.00;100343.13;4947887;28;20162;-79
2021/07/05 03:59:14;;;;;;;34.97;24.52;;;;;;;14.16;100.00;100346.47;4937482;28;20529;-79
2021/07/05 04:01:40;;;;;;;30.92;23.63;;;;;;;14.19;100.00;100346.06;4941268;28;20484;-79
2021/07/05 04:04:05;;;;;;;34.20;23.42;;;;;;;14.23;100.00;100347.31;4946840;28;20043;-79
2021/07/05 04:06:32;;;;;;;33.72;24.05;;;;;;;14.27;100.00;100347.78;4956048;28;20051;-79
2021/07/05 04:08:59;;;;;;;33.15;23.05;;;;;;;14.34;100.00;100342.41;4958467;28;20130;-79
2021/07/05 04:11:24;;;;;;;31.70;21.95;;;;;;;14.39;100.00;100345.34;4955558;28;20045;-79
2021/07/05 04:13:49;;;;;;;31.38;23.05;;;;;;;14.41;100.00;100337.84;4959907;28;20035;-79
2021/07/05 04:16:15;;;;;;;28.67;21.33;;;;;;;14.45;100.00;100334.56;4945375;28;20039;-79
2021/07/05 04:18:41;;;;;;;32.00;22.65;;;;;;;14.54;100.00;100337.97;4946233;28;20508;-78
2021/07/05 04:21:06;;;;;;;30.98;20.90;;;;;;;14.54;100.00;100343.34;4968958;28;20034;-79
2021/07/05 04:23:32;;;;;;;33.65;21.55;;;;;;;14.63;100.00;100341.31;4970276;28;20043;-79
2021/07/05 04:25:59;;;;;;;28.10;20.98;;;;;;;14.73;100.00;100340.94;4968761;28;20382;-79
2021/07/05 04:28:25;;;;;;;30.70;19.85;;;;;;;14.78;100.00;100338.47;4947569;28;20080;-79
2021/07/05 04:30:50;;;;;;;25.00;19.13;;;;;;;14.78;100.00;100333.88;4965049;28;20432;-79
2021/07/05 04:33:16;;;;;;;29.67;19.48;;;;;;;14.85;100.00;100340.16;4974129;28;20531;-79
2021/07/05 04:35:41;;;;;;;24.38;18.75;;;;;;;14.91;100.00;100338.50;4972177;28;20050;-78
2021/07/05 04:38:06;;;;;;;26.63;18.88;;;;;;;14.98;100.00;100338.50;4951595;28;20043;-79
2021/07/05 04:40:35;;;;;;;27.98;18.52;;;;;;;15.01;100.00;100341.63;4969453;28;20062;-79
2021/07/05 04:43:01;;;;;;;28.45;18.27;;;;;;;15.01;100.00;100336.22;4952767;28;20455;-79
2021/07/05 04:45:29;;;;;;;25.38;18.75;;;;;;;15.03;100.00;100336.88;4951011;28;20054;-79
2021/07/05 04:47:57;;;;;;;25.75;18.40;;;;;;;15.08;100.00;100336.25;4962238;28;20046;-79
2021/07/05 04:50:23;;;;;;;27.23;18.42;;;;;;;15.10;100.00;100343.13;4966222;28;20074;-79
2021/07/05 04:52:53;;;;;;;25.60;19.20;;;;;;;15.15;100.00;100344.38;4973636;28;20046;-79
2021/07/05 04:55:20;;;;;;;28.30;19.70;;;;;;;15.18;100.00;100343.97;4927585;28;20330;-79
2021/07/05 04:57:48;;;;;;;30.27;20.40;;;;;;;15.21;100.00;100348.97;4955145;28;20051;-79
2021/07/05 05:00:36;;;;;;;28.75;20.33;;;;;;;15.24;100.00;100349.38;4965318;28;20042;-79
2021/07/05 05:03:04;;;;;;;27.15;21.40;;;;;;;15.22;100.00;100347.91;4943617;28;20443;-78
2021/07/05 05:05:30;;;;;;;28.50;21.05;;;;;;;15.22;100.00;100353.31;4940274;28;20050;-79
2021/07/05 05:07:56;;;;;;;30.00;21.05;;;;;;;15.17;100.00;100353.94;4943693;28;20042;-78
2021/07/05 05:10:22;;;;;;;30.58;22.67;;;;;;;15.18;100.00;100354.78;4945599;28;20049;-78
2021/07/05 05:12:48;;;;;;;26.48;21.48;;;;;;;15.15;100.00;100355.19;4941055;28;20043;-79
2021/07/05 05:15:15;;;;;;;28.42;21.85;;;;;;;15.09;100.00;100357.66;4923563;28;20035;-78
2021/07/05 05:17:40;;;;;;;26.92;22.35;;;;;;;15.08;100.00;100344.38;4961888;28;20105;-79
2021/07/05 05:20:08;;;;;;;27.60;22.95;;;;;;;15.10;100.00;100356.66;4945482;28;20042;-79
2021/07/05 05:22:34;;;;;;;27.70;20.38;;;;;;;15.05;100.00;100350.19;4962072;28;20336;-79
2021/07/05 05:24:59;;;;;;;25.15;21.27;;;;;;;15.04;100.00;100346.63;4960287;28;20051;-78
2021/07/05 05:27:26;;;;;;;24.98;20.48;;;;;;;15.04;100.00;100343.94;4939195;28;20247;-79
2021/07/05 05:29:51;;;;;;;24.58;20.10;;;;;;;15.01;100.00;100346.22;4922322;28;20049;-79
2021/07/05 05:32:16;;;;;;;24.92;20.13;;;;;;;15.03;100.00;100339.56;4960584;28;20383;-79
2021/07/05 05:34:42;;;;;;;21.92;16.88;;;;;;;14.97;100.00;100335.00;4953386;28;20046;-79
2021/07/05 05:37:07;;;;;;;21.65;16.30;;;;;;;14.93;100.00;100331.00;4928443;28;20042;-79
2021/07/05 05:39:33;;;;;;;19.67;15.73;;;;;;;14.91;100.00;100333.09;4933755;28;20051;-79
2021/07/05 05:41:58;;;;;;;21.90;15.77;;;;;;;14.90;100.00;100331.41;4959561;28;20035;-79
2021/07/05 05:44:24;;;;;;;20.00;16.02;;;;;;;14.90;100.00;100331.41;4964101;28;20062;-79
2021/07/05 05:46:49;;;;;;;17.90;14.18;;;;;;;14.91;100.00;100341.22;4944450;28;20150;-78
2021/07/05 05:49:15;;;;;;;18.05;14.52;;;;;;;14.91;100.00;100349.31;4961259;28;20404;-78
2021/07/05 05:51:40;;;;;;;19.08;15.98;;;;;;;14.98;100.00;100355.56;4939963;28;20137;-78
2021/07/05 05:54:07;;;;;;;18.52;14.80;;;;;;;14.98;100.00;100360.13;4952176;28;20374;-78
2021/07/05 05:56:34;;;;;;;18.08;14.02;;;;;;;14.94;100.00;100375.94;4951400;28;20039;-78
2021/07/05 05:59:04;;;;;;;18.55;14.70;;;;;;;14.97;100.00;100383.63;4936212;29;20082;-78
2021/07/05 06:01:30;;;;;;;24.45;17.48;;;;;;;14.99;100.00;100383.41;4923814;28;20039;-78
2021/07/05 06:03:56;;;;;;;21.75;16.55;;;;;;;14.94;100.00;100388.59;4933912;28;20035;-78
2021/07/05 06:06:21;;;;;;;18.45;11.88;;;;;;;14.88;100.00;100384.84;4941840;28;20082;-78
2021/07/05 06:08:47;;;;;;;12.10;8.85;;;;;;;14.74;100.00;100380.44;4904493;29;20050;-78
2021/07/05 06:11:12;;;;;;;11.38;7.90;;;;;;;14.59;100.00;100392.19;4943023;28;20040;-78
2021/07/05 06:13:38;;;;;;;10.63;7.15;;;;;;;14.54;100.00;100391.97;4930670;29;20053;-78
2021/07/05 06:16:03;;;;;;;8.80;6.93;;;;;;;14.45;100.00;100391.25;4924367;29;20489;-78
2021/07/05 06:18:29;;;;;;;9.07;6.80;;;;;;;14.47;100.00;100382.13;4941588;28;20362;-78
2021/07/05 06:20:54;;;;;;;8.13;6.13;;;;;;;14.45;100.00;100396.66;4924543;29;21854;-78
2021/07/05 06:23:26;;;;;;;8.73;6.28;;;;;;;14.50;100.00;100406.88;4916213;28;20540;-77
2021/07/05 06:25:53;;;;;;;7.93;5.85;;;;;;;14.49;100.00;100404.34;4915511;29;20524;-78
2021/07/05 06:28:20;;;;;;;8.82;5.93;;;;;;;14.43;100.00;100412.22;4923894;28;20159;-79
2021/07/05 06:30:47;;;;;;;8.65;6.53;;;;;;;14.46;100.00;100405.59;4939941;28;20054;-79
2021/07/05 06:33:13;;;;;;;7.75;6.05;;;;;;;14.43;100.00;100409.50;4943898;28;20122;-79
2021/07/05 06:35:59;;;;;;;9.38;6.40;;;;;;;14.49;100.00;100407.06;4939613;28;20051;-78
2021/07/05 06:38:26;;;;;;;8.20;6.78;;;;;;;14.49;100.00;100407.88;4943473;28;20065;-78
2021/07/05 06:40:52;;;;;;;7.25;5.80;;;;;;;14.55;100.00;100403.59;4929159;29;20043;-78
2021/07/05 06:43:18;;;;;;;7.18;4.88;;;;;;;14.48;100.00;100400.81;4936826;28;20051;-79
2021/07/05 06:45:44;;;;;;;6.70;4.93;;;;;;;14.50;100.00;100390.66;4946664;28;20053;-78
2021/07/05 06:48:09;;;;;;;8.32;5.05;;;;;;;14.47;100.00;100395.59;4931473;29;20694;-79
2021/07/05 06:50:36;;;;;;;8.15;4.53;;;;;;;14.42;100.00;100413.25;4950311;28;20098;-78
2021/07/05 06:53:01;;;;;;;8.05;3.97;;;;;;;14.43;100.00;100400.59;4931437;28;20047;-78
2021/07/05 06:55:27;;;;;;;5.43;3.30;;;;;;;14.36;100.00;100405.13;4947600;28;20445;-79
2021/07/05 06:57:52;;;;;;;7.25;3.60;;;;;;;14.40;100.00;100406.38;4947483;28;20039;-78
2021/07/05 07:00:21;;;;;;;5.15;3.35;;;;;;;14.44;100.00;100408.50;4916111;28;20586;-79
2021/07/05 07:02:47;;;;;;;6.50;3.88;;;;;;;14.45;100.00;100401.22;4952754;28;20568;-79
2021/07/05 07:05:16;;;;;;;8.05;4.35;;;;;;;14.51;100.00;100402.31;4951279;28;20044;-78
2021/07/05 07:07:44;;;;;;;8.48;3.53;;;;;;;14.53;100.00;100405.63;4970942;28;20047;-78
2021/07/05 07:10:11;;;;;;;4.70;3.17;;;;;;;14.42;100.00;100402.47;4963711;28;20276;-79
2021/07/05 07:12:38;;;;;;;5.80;3.70;;;;;;;14.47;100.00;100399.13;4966128;28;20042;-78
2021/07/05 07:15:06;;;;;;;5.95;3.63;;;;;;;14.46;100.00;100397.47;4967826;28;20037;-78
2021/07/05 07:17:45;;;;;;;4.82;2.63;;;;;;;14.45;100.00;100403.94;4953101;28;20053;-79
2021/07/05 07:20:12;;;;;;;5.78;3.20;;;;;;;14.47;100.00;100396.44;4967328;28;20122;-78
2021/07/05 07:22:38;;;;;;;5.07;3.78;;;;;;;14.47;100.00;100401.84;4946408;28;20051;-79
2021/07/05 07:25:06;;;;;;;6.35;3.35;;;;;;;14.50;100.00;100393.38;4939821;28;20046;-79
2021/07/05 07:27:32;;;;;;;4.72;3.20;;;;;;;14.53;100.00;100395.69;4973512;28;20043;-78
2021/07/05 07:29:57;;;;;;;5.05;3.50;;;;;;;14.54;100.00;100396.53;4949752;28;20038;-79
2021/07/05 07:32:22;;;;;;;6.43;3.15;;;;;;;14.63;100.00;100395.31;4950525;28;20043;-78
2021/07/05 07:34:48;;;;;;;6.20;3.60;;;;;;;14.53;100.00;100397.53;4970816;28;20130;-78
2021/07/05 07:37:14;;;;;;;5.00;3.60;;;;;;;14.55;100.00;100393.63;4969419;28;20097;-79
2021/07/05 07:39:42;;;;;;;6.72;3.22;;;;;;;14.59;100.00;100389.50;4967856;28;20134;-79
2021/07/05 07:42:08;;;;;;;6.65;3.70;;;;;;;14.64;100.00;100388.88;4966162;28;20274;-79
2021/07/05 07:44:34;;;;;;;5.28;3.38;;;;;;;14.63;100.00;100379.94;4934340;28;20129;-78
2021/07/05 07:47:01;;;;;;;7.68;4.15;;;;;;;14.74;100.00;100389.34;4962005;28;20065;-79
2021/07/05 07:49:27;;;;;;;8.48;4.05;;;;;;;14.79;100.00;100389.59;4954222;28;20380;-78
2021/07/05 07:51:53;;;;;;;7.03;4.38;;;;;;;14.89;100.00;100400.84;4947443;28;20666;-78
2021/07/05 07:54:18;;;;;;;7.00;4.57;;;;;;;14.84;100.00;100402.47;4964659;28;20063;-78
2021/07/05 07:56:43;;;;;;;8.57;4.47;;;;;;;14.89;100.00;100397.31;4932783;28;20129;-78
2021/07/05 07:59:09;;;;;;;6.38;4.78;;;;;;;14.89;100.00;100405.41;4950626;28;20043;-79
2021/07/05 08:01:34;;;;;;;8.43;4.65;;;;;;;14.97;100.00;100410.63;4933521;28;20081;-79
2021/07/05 08:03:59;;;;;;;7.78;5.13;;;;;;;14.95;100.00;100412.69;4949592;28;20039;-79
2021/07/05 08:06:25;;;;;;;9.23;5.55;;;;;;;15.04;100.00;100414.19;4948333;28;20475;-78
2021/07/05 08:08:55;;;;;;;10.52;5.07;;;;;;;15.07;100.00;100421.06;4965601;28;20082;-79
2021/07/05 08:11:21;;;;;;;8.57;4.47;;;;;;;15.07;100.00;100429.16;4934870;28;20109;-79
2021/07/05 08:13:47;;;;;;;8.70;4.75;;;;;;;15.06;100.00;100430.22;4949171;28;20484;-78
2021/07/05 08:16:12;;;;;;;8.88;5.47;;;;;;;15.15;100.00;100428.97;4950301;28;20054;-79
2021/07/05 08:18:37;;;;;;;8.80;5.22;;;;;;;15.17;100.00;100434.19;4964580;28;20054;-78
2021/07/05 08:21:03;;;;;;;12.13;4.70;;;;;;;15.23;100.00;100438.78;4951369;28;20039;-79
2021/07/05 08:23:30;;;;;;;11.82;5.53;;;;;;;15.22;100.00;100437.09;4951626;28;20034;-79
2021/07/05 08:25:55;;;;;;;9.68;5.93;;;;;;;15.22;100.00;100431.69;4949284;28;20050;-79
2021/07/05 08:28:23;;;;;;;9.10;5.65;;;;;;;15.32;100.00;100435.69;4950877;28;20381;-79
2021/07/05 08:30:49;;;;;;;13.07;8.00;;;;;;;15.45;100.00;100443.00;4947257;28;20047;-78
2021/07/05 08:33:14;;;;;;;9.27;6.32;;;;;;;15.52;100.00;100438.44;4949260;28;20057;-78
2021/07/05 08:35:40;;;;;;;9.73;6.13;;;;;;;15.57;100.00;100451.34;4965932;28;20055;-78
2021/07/05 08:38:05;;;;;;;8.63;6.70;;;;;;;15.62;100.00;100443.44;4933810;28;20042;-79
2021/07/05 08:40:31;;;;;;;10.48;7.55;;;;;;;15.65;100.00;100444.91;4948314;28;20101;-79
2021/07/05 08:42:57;;;;;;;14.00;8.50;;;;;;;15.70;100.00;100450.56;4971281;28;20070;-79
2021/07/05 08:45:24;;;;;;;10.55;7.05;;;;;;;15.75;100.00;100442.66;4965168;28;20050;-78
2021/07/05 08:47:53;;;;;;;10.20;7.57;;;;;;;15.82;100.00;100442.66;4953894;28;20610;-79
2021/07/05 08:50:21;;;;;;;11.63;8.00;;;;;;;15.80;100.00;100445.59;4975219;28;20043;-79
2021/07/05 08:52:46;;;;;;;11.15;7.90;;;;;;;15.87;100.00;100446.41;4953114;28;20487;-78
2021/07/05 08:55:18;;;;;;;12.20;8.32;;;;;;;16.00;100.00;100449.13;4949289;28;20066;-79
2021/07/05 08:57:45;;;;;;;11.23;7.93;;;;;;;16.02;100.00;100448.91;4965506;28;20098;-79
2021/07/05 09:00:19;;;;;;;13.57;7.85;;;;;;;16.08;100.00;100450.78;4932643;28;20054;-79
2021/07/05 09:02:46;;;;;;;11.65;8.80;;;;;;;16.09;100.00;100452.47;4948698;28;20045;-79
2021/07/05 09:05:11;;;;;;;13.70;8.35;;;;;;;16.10;100.00;100454.13;4946505;29;20043;-78
2021/07/05 09:08:04;;;;;;;11.63;8.68;;;;;;;16.14;100.00;100446.41;4934712;28;20061;-79
2021/07/05 09:10:45;;;;;;;13.35;8.57;;;;;;;16.23;100.00;100445.19;4965928;28;20074;-79
2021/07/05 09:13:12;;;;;;;15.13;8.95;;;;;;;16.25;100.00;100448.47;4945984;28;20035;-79
2021/07/05 09:15:58;;;;;;;11.50;9.00;;;;;;;16.34;100.00;100444.53;4958384;28;20089;-79
2021/07/05 09:18:32;;;;;;;10.70;7.60;;;;;;;16.33;99.36;100459.09;4952255;28;20039;-78
2021/07/05 09:21:16;;;;;;;13.18;7.97;;;;;;;16.37;98.31;100445.97;4960471;28;20050;-79
2021/07/05 09:23:55;;;;;;;11.50;7.57;;;;;;;16.47;99.21;100449.91;4966442;28;20066;-79
2021/07/05 09:26:41;;;;;;;12.25;8.02;;;;;;;16.46;98.31;100450.97;4944064;28;20047;-78
2021/07/05 09:29:22;;;;;;;11.13;6.45;;;;;;;16.43;97.24;100448.69;4954237;28;20511;-79
2021/07/05 09:32:00;;;;;;;9.95;6.68;;;;;;;16.43;96.43;100459.53;4961466;28;20050;-78
2021/07/05 09:34:30;;;;;;;8.77;6.30;;;;;;;16.47;96.87;100446.38;4964469;28;20088;-79
2021/07/05 09:37:30;;;;;;;9.30;6.68;;;;;;;16.45;96.70;100454.69;4965269;28;20077;-78
2021/07/05 09:40:02;;;;;;;13.60;7.75;;;;;;;16.55;98.16;100458.88;4946110;28;20238;-78
2021/07/05 09:42:50;;;;;;;10.30;7.25;;;;;;;16.54;96.59;100460.72;4963559;28;20133;-78
2021/07/05 09:45:37;;;;;;;11.05;6.75;;;;;;;16.63;98.20;100455.91;4964183;28;20054;-79
2021/07/05 09:48:41;;;;;;;12.60;8.05;;;;;;;16.75;96.79;100456.13;4931858;28;20041;-78
2021/07/05 09:51:06;;;;;;;10.85;7.18;;;;;;;16.79;97.05;100460.09;4960849;28;20054;-78
2021/07/05 09:53:35;;;;;;;12.10;6.72;;;;;;;16.96;96.89;100455.84;4929115;29;20039;-80
2021/07/05 09:56:24;;;;;;;10.95;6.70;;;;;;;17.04;95.92;100461.03;4946929;28;20036;-79
2021/07/05 09:58:55;;;;;;;9.38;6.10;;;;;;;17.07;94.91;100457.91;4929038;29;20039;-81
2021/07/05 10:01:42;;;;;;;9.25;6.20;;;;;;;17.26;95.62;100460.72;4946420;29;20155;-80
2021/07/05 10:04:23;;;;;;;10.95;5.95;;;;;;;17.27;92.96;100463.22;4928271;29;20404;-79
2021/07/05 10:06:49;;;;;;;9.85;6.38;;;;;;;17.30;92.74;100456.56;4928953;29;20047;-79
2021/07/05 10:09:38;;;;;;;10.85;5.95;;;;;;;17.29;92.25;100463.00;4929805;29;20083;-79
2021/07/05 10:12:20;;;;;;;11.73;5.70;;;;;;;17.41;90.26;100469.44;4947125;28;20246;-79
2021/07/05 10:14:57;;;;;;;10.05;4.93;;;;;;;17.49;90.59;100457.47;4952058;28;20047;-79
2021/07/05 10:17:24;;;;;;;9.05;5.47;;;;;;;17.48;88.72;100453.94;4949312;28;20035;-79
2021/07/05 10:19:50;;;;;;;8.50;5.75;;;;;;;17.64;91.20;100447.16;4952097;28;20162;-79
2021/07/05 10:22:16;;;;;;;10.38;5.70;;;;;;;17.67;91.24;100446.72;4951963;28;20086;-79
2021/07/05 10:24:45;;;;;;;7.30;5.13;;;;;;;17.73;90.11;100448.56;4951626;28;20043;-79
2021/07/05 10:27:12;;;;;;;10.32;5.60;;;;;;;17.73;86.99;100456.69;4951452;28;20141;-79
2021/07/05 10:29:39;;;;;;;8.98;5.22;;;;;;;17.89;89.49;100451.81;4952265;28;20058;-79
2021/07/05 10:32:05;;;;;;;9.27;4.88;;;;;;;17.91;85.91;100447.00;4954304;28;20101;-79
2021/07/05 10:34:31;;;;;;;8.48;4.72;;;;;;;17.94;86.25;100457.41;4968404;28;20109;-79
2021/07/05 10:36:58;;;;;;;10.55;4.95;;;;;;;18.12;86.51;100449.31;4952636;28;20137;-79
2021/07/05 10:39:26;;;;;;;9.13;4.57;;;;;;;18.19;84.66;100457.44;4968392;28;20074;-79
2021/07/05 10:41:51;;;;;;;10.50;4.75;;;;;;;18.19;85.18;100460.16;4950674;28;20426;-79
2021/07/05 10:44:20;;;;;;;10.57;4.82;;;;;;;18.21;85.32;100455.28;4969025;28;20337;-79
2021/07/05 10:46:46;;;;;;;8.43;5.05;;;;;;;18.29;84.76;100460.44;4953571;28;20057;-79
2021/07/05 10:49:30;;;;;;;8.52;4.13;;;;;;;18.27;85.09;100441.69;4951644;28;20042;-79
2021/07/05 10:52:07;;;;;;;7.10;4.00;;;;;;;18.16;83.08;100445.13;4968391;28;20125;-79
2021/07/05 10:54:41;;;;;;;8.45;3.92;;;;;;;18.33;84.04;100455.44;4951119;28;20050;-79
2021/07/05 10:57:06;;;;;;;8.77;4.07;;;;;;;18.42;84.38;100454.91;4951333;28;20046;-79
2021/07/05 10:59:34;;;;;;;8.85;4.57;;;;;;;18.47;84.67;100457.78;4949408;28;20039;-79
2021/07/05 11:02:00;;;;;;;7.10;3.72;;;;;;;18.32;81.42;100437.44;4932318;28;20050;-79
2021/07/05 11:04:31;;;;;;;8.00;3.58;;;;;;;18.35;81.86;100450.59;4948878;28;20043;-79
2021/07/05 11:07:17;;;;;;;6.85;2.95;;;;;;;18.21;79.70;100437.16;4971156;28;20451;-79
2021/07/05 11:09:55;;;;;;;8.00;3.75;;;;;;;18.27;80.97;100446.28;4968048;28;20047;-79
2021/07/05 11:12:32;;;;;;;7.45;3.97;;;;;;;18.35;82.52;100442.44;4968783;28;20034;-79